Time,TemperatureF,DewpointF,PressureIn,WindDirection,WindDirectionDegrees,WindSpeedMPH,WindSpeedGustMPH,Humidity,HourlyPrecipIn,Conditions,Clouds,dailyrainin,SoftwareType,DateUTC
2013-05-19 00:01:00,71.1,62.0,29.69,SSE,158,0.0,0.0,73,0.00,,,0.00,weatherlink.com 1.10,2013-05-19 05:01:00,
2013-05-19 00:16:00,70.9,63.0,29.70,South,173,0.0,0.0,75,0.00,,,0.00,weatherlink.com 1.10,2013-05-19 05:16:00,
2013-05-19 00:31:00,70.6,63.0,29.71,South,169,0.0,0.0,76,0.00,,,0.00,weatherlink.com 1.10,2013-05-19 05:31:00,
2013-05-19 00:46:00,70.8,63.0,29.72,South,169,0.0,0.0,76,0.00,,,0.00,weatherlink.com 1.10,2013-05-19 05:46:00,
2013-05-19 01:01:00,70.8,63.0,29.72,South,187,0.0,0.0,76,0.00,,,0.00,weatherlink.com 1.10,2013-05-19 06:01:00,
2013-05-19 01:16:00,70.7,63.0,29.72,SSW,196,0.0,0.0,77,0.00,,,0.00,weatherlink.com 1.10,2013-05-19 06:16:00,
2013-05-19 01:31:00,70.8,63.0,29.71,SE,136,0.0,0.0,77,0.00,,,0.00,weatherlink.com 1.10,2013-05-19 06:31:00,
2013-05-19 01:46:00,70.5,63.0,29.71,SW,223,0.0,0.0,77,0.00,,,0.00,weatherlink.com 1.10,2013-05-19 06:46:00,
2013-05-19 02:01:00,70.4,63.0,29.70,SSE,148,0.0,0.0,78,0.00,,,0.00,weatherlink.com 1.10,2013-05-19 07:01:00,
2013-05-19 02:16:00,70.6,63.0,29.69,South,188,0.0,0.0,77,0.00,,,0.00,weatherlink.com 1.10,2013-05-19 07:16:00,
2013-05-19 02:31:00,70.5,63.0,29.68,SE,128,0.0,0.0,77,0.00,,,0.00,weatherlink.com 1.10,2013-05-19 07:31:00,
2013-05-19 02:46:00,70.3,63.0,29.67,SSE,152,0.0,0.0,78,0.00,,,0.00,weatherlink.com 1.10,2013-05-19 07:46:00,
2013-05-19 03:01:00,69.7,63.0,29.66,SSE,154,0.0,0.0,79,0.00,,,0.00,weatherlink.com 1.10,2013-05-19 08:01:00,
2013-05-19 03:16:00,69.3,63.0,29.64,SSW,200,0.0,0.0,80,0.00,,,0.00,weatherlink.com 1.10,2013-05-19 08:16:00,
2013-05-19 03:31:00,69.2,63.0,29.63,South,177,0.0,0.0,81,0.00,,,0.00,weatherlink.com 1.10,2013-05-19 08:31:00,
2013-05-19 03:46:00,68.8,64.0,29.65,South,176,0.0,0.0,83,0.02,,,0.02,weatherlink.com 1.10,2013-05-19 08:46:00,
2013-05-19 04:01:00,67.2,65.0,29.69,South,180,0.0,0.0,91,0.44,,,0.44,weatherlink.com 1.10,2013-05-19 09:01:00,
2013-05-19 04:16:00,67.4,64.0,29.66,SW,219,0.0,0.0,89,0.45,,,0.45,weatherlink.com 1.10,2013-05-19 09:16:00,
2013-05-19 04:31:00,67.2,64.0,29.64,WSW,246,0.0,0.0,89,0.45,,,0.45,weatherlink.com 1.10,2013-05-19 09:31:00,
2013-05-19 04:46:00,66.6,64.0,29.63,SE,146,0.0,0.0,91,0.42,,,0.45,weatherlink.com 1.10,2013-05-19 09:46:00,
2013-05-19 05:01:00,65.8,64.0,29.61,East,94,0.0,0.0,92,0.01,,,0.45,weatherlink.com 1.10,2013-05-19 10:01:00,
2013-05-19 05:16:00,65.2,63.0,29.59,ESE,122,0.0,0.0,92,0.00,,,0.45,weatherlink.com 1.10,2013-05-19 10:16:00,
2013-05-19 05:31:00,64.7,62.0,29.58,ESE,115,0.0,0.0,91,0.00,,,0.45,weatherlink.com 1.10,2013-05-19 10:31:00,
2013-05-19 05:46:00,64.4,62.0,29.60,South,173,0.0,0.0,91,0.00,,,0.45,weatherlink.com 1.10,2013-05-19 10:46:00,
2013-05-19 06:01:00,64.8,62.0,29.60,SE,139,0.0,0.0,89,0.01,,,0.46,weatherlink.com 1.10,2013-05-19 11:01:00,
2013-05-19 06:16:00,65.3,63.0,29.59,SSE,155,0.0,0.0,92,0.01,,,0.46,weatherlink.com 1.10,2013-05-19 11:16:00,
2013-05-19 06:32:00,65.7,63.0,29.60,SW,224,0.0,0.0,92,0.01,,,0.46,weatherlink.com 1.10,2013-05-19 11:32:00,
2013-05-19 06:46:00,65.7,64.0,29.60,SSW,201,0.0,0.0,93,0.01,,,0.46,weatherlink.com 1.10,2013-05-19 11:46:00,
2013-05-19 07:02:00,65.9,64.0,29.62,South,190,0.0,0.0,93,0.00,,,0.46,weatherlink.com 1.10,2013-05-19 12:02:00,
2013-05-19 07:17:00,66.7,64.0,29.62,SSE,155,0.0,0.0,92,0.00,,,0.46,weatherlink.com 1.10,2013-05-19 12:17:00,
2013-05-19 07:47:00,67.8,65.0,29.63,SSW,193,0.0,0.0,89,0.00,,,0.46,weatherlink.com 1.10,2013-05-19 12:47:00,
2013-05-19 08:02:00,68.3,65.0,29.63,South,173,0.0,0.0,88,0.00,,,0.46,weatherlink.com 1.10,2013-05-19 13:02:00,
2013-05-19 08:17:00,68.6,65.0,29.63,SSE,160,0.0,0.0,87,0.00,,,0.46,weatherlink.com 1.10,2013-05-19 13:17:00,
2013-05-19 08:32:00,68.8,65.0,29.63,South,183,0.0,0.0,87,0.00,,,0.46,weatherlink.com 1.10,2013-05-19 13:32:00,
2013-05-19 08:47:00,69.2,65.0,29.62,South,182,0.0,0.0,85,0.00,,,0.46,weatherlink.com 1.10,2013-05-19 13:47:00,
2013-05-19 09:17:00,70.8,65.0,29.61,SE,145,0.0,0.0,82,0.00,,,0.46,weatherlink.com 1.10,2013-05-19 14:17:00,
2013-05-19 09:32:00,70.1,65.0,29.61,SSW,206,0.0,0.0,84,0.00,,,0.46,weatherlink.com 1.10,2013-05-19 14:32:00,
2013-05-19 09:47:00,70.2,65.0,29.60,SSW,194,0.0,0.0,84,0.00,,,0.46,weatherlink.com 1.10,2013-05-19 14:47:00,
2013-05-19 10:02:00,69.9,65.0,29.61,South,171,0.0,0.0,84,0.00,,,0.46,weatherlink.com 1.10,2013-05-19 15:02:00,
2013-05-19 10:17:00,69.7,65.0,29.65,SSW,206,0.0,0.0,85,0.00,,,0.46,weatherlink.com 1.10,2013-05-19 15:17:00,
2013-05-19 10:32:00,69.7,66.0,29.65,SSW,194,0.0,0.0,87,0.00,,,0.46,weatherlink.com 1.10,2013-05-19 15:32:00,
2013-05-19 11:02:00,73.8,67.0,29.63,SW,229,0.0,0.0,78,0.00,,,0.46,weatherlink.com 1.10,2013-05-19 16:02:00,
2013-05-19 11:17:00,74.3,66.0,29.62,SSE,155,0.0,0.0,75,0.00,,,0.46,weatherlink.com 1.10,2013-05-19 16:17:00,
2013-05-19 11:32:00,74.3,66.0,29.62,SSW,193,0.0,0.0,74,0.00,,,0.46,weatherlink.com 1.10,2013-05-19 16:32:00,
2013-05-19 11:47:00,74.4,64.0,29.62,SW,217,0.0,0.0,71,0.00,,,0.46,weatherlink.com 1.10,2013-05-19 16:47:00,
2013-05-19 12:02:00,74.0,64.0,29.60,SW,221,0.0,0.0,70,0.00,,,0.46,weatherlink.com 1.10,2013-05-19 17:02:00,
2013-05-19 12:17:00,73.9,64.0,29.62,South,174,0.0,0.0,72,0.00,,,0.46,weatherlink.com 1.10,2013-05-19 17:17:00,
2013-05-19 12:47:00,71.9,65.0,29.61,SW,220,0.0,0.0,78,0.00,,,0.46,weatherlink.com 1.10,2013-05-19 17:47:00,
2013-05-19 13:02:00,70.0,65.0,29.60,SSW,192,0.0,0.0,83,0.00,,,0.46,weatherlink.com 1.10,2013-05-19 18:02:00,
2013-05-19 13:17:00,69.6,65.0,29.59,WSW,257,0.0,0.0,86,0.00,,,0.46,weatherlink.com 1.10,2013-05-19 18:17:00,
2013-05-19 13:32:00,70.5,64.0,29.59,SW,233,0.0,0.0,81,0.00,,,0.46,weatherlink.com 1.10,2013-05-19 18:32:00,
2013-05-19 13:47:00,70.8,65.0,29.59,SW,226,0.0,0.0,81,0.00,,,0.46,weatherlink.com 1.10,2013-05-19 18:47:00,
2013-05-19 14:02:00,70.3,64.0,29.59,SSW,211,0.0,0.0,80,0.00,,,0.46,weatherlink.com 1.10,2013-05-19 19:02:00,
2013-05-19 14:17:00,70.2,63.0,29.57,WSW,246,0.0,0.0,79,0.00,,,0.46,weatherlink.com 1.10,2013-05-19 19:17:00,
2013-05-19 14:32:00,71.7,63.0,29.56,SW,219,0.0,0.0,75,0.00,,,0.46,weatherlink.com 1.10,2013-05-19 19:32:00,
2013-05-19 14:47:00,73.5,63.0,29.55,SSE,156,0.0,0.0,70,0.00,,,0.46,weatherlink.com 1.10,2013-05-19 19:47:00,
2013-05-19 15:17:00,73.9,64.0,29.55,SSW,206,0.0,0.0,72,0.00,,,0.46,weatherlink.com 1.10,2013-05-19 20:17:00,
2013-05-19 15:32:00,73.8,64.0,29.56,South,175,0.0,0.0,72,0.00,,,0.46,weatherlink.com 1.10,2013-05-19 20:32:00,
2013-05-19 15:47:00,74.2,63.0,29.56,SSW,197,0.0,0.0,69,0.00,,,0.46,weatherlink.com 1.10,2013-05-19 20:47:00,
2013-05-19 16:02:00,75.8,64.0,29.56,West,262,0.0,0.0,67,0.00,,,0.46,weatherlink.com 1.10,2013-05-19 21:02:00,
2013-05-19 16:17:00,76.2,64.0,29.57,SSW,199,0.0,0.0,66,0.00,,,0.46,weatherlink.com 1.10,2013-05-19 21:17:00,
2013-05-19 16:32:00,74.8,65.0,29.58,South,186,0.0,0.0,72,0.00,,,0.46,weatherlink.com 1.10,2013-05-19 21:32:00,
2013-05-19 16:47:00,75.7,65.0,29.58,West,277,0.0,0.0,70,0.00,,,0.46,weatherlink.com 1.10,2013-05-19 21:47:00,
2013-05-19 17:02:00,75.9,65.0,29.57,WSW,252,0.0,0.0,68,0.00,,,0.46,weatherlink.com 1.10,2013-05-19 22:02:00,
2013-05-19 17:17:00,76.0,65.0,29.56,WSW,249,0.0,0.0,68,0.00,,,0.46,weatherlink.com 1.10,2013-05-19 22:17:00,
2013-05-19 17:32:00,74.8,64.0,29.55,WNW,284,0.0,0.0,68,0.00,,,0.46,weatherlink.com 1.10,2013-05-19 22:32:00,
2013-05-19 17:47:00,74.9,63.0,29.53,WNW,293,0.0,0.0,67,0.00,,,0.46,weatherlink.com 1.10,2013-05-19 22:47:00,
2013-05-19 18:02:00,73.3,63.0,29.51,WNW,285,0.0,0.0,71,0.00,,,0.46,weatherlink.com 1.10,2013-05-19 23:02:00,
2013-05-19 18:17:00,72.7,63.0,29.52,NW,309,0.0,0.0,72,0.00,,,0.46,weatherlink.com 1.10,2013-05-19 23:17:00,
2013-05-19 18:32:00,71.5,64.0,29.53,NW,304,0.0,0.0,77,0.00,,,0.46,weatherlink.com 1.10,2013-05-19 23:32:00,
2013-05-19 18:47:00,69.5,64.0,29.57,West,260,0.0,0.0,83,0.09,,,0.55,weatherlink.com 1.10,2013-05-19 23:47:00,
2013-05-19 19:02:00,67.3,64.0,29.55,West,278,0.0,0.0,89,0.12,,,0.58,weatherlink.com 1.10,2013-05-20 00:02:00,
2013-05-19 19:17:00,66.5,64.0,29.54,South,184,0.0,0.0,91,0.12,,,0.58,weatherlink.com 1.10,2013-05-20 00:17:00,
2013-05-19 19:32:00,66.1,64.0,29.53,SSW,211,0.0,0.0,91,0.12,,,0.58,weatherlink.com 1.10,2013-05-20 00:32:00,
2013-05-19 19:47:00,66.0,64.0,29.53,SSW,211,0.0,0.0,92,0.02,,,0.58,weatherlink.com 1.10,2013-05-20 00:47:00,
2013-05-19 20:02:00,65.8,64.0,29.54,East,82,0.0,0.0,93,0.00,,,0.58,weatherlink.com 1.10,2013-05-20 01:02:00,
2013-05-19 20:17:00,65.6,64.0,29.55,SE,136,0.0,0.0,93,0.01,,,0.59,weatherlink.com 1.10,2013-05-20 01:17:00,
2013-05-19 20:32:00,65.6,64.0,29.57,SSW,213,0.0,0.0,93,0.02,,,0.60,weatherlink.com 1.10,2013-05-20 01:32:00,
2013-05-19 20:47:00,65.3,63.0,29.50,East,85,0.0,0.0,93,0.04,,,0.62,weatherlink.com 1.10,2013-05-20 01:47:00,
2013-05-19 21:02:00,65.0,63.0,29.45,East,94,0.0,0.0,92,0.06,,,0.64,weatherlink.com 1.10,2013-05-20 02:02:00,
2013-05-19 21:17:00,65.0,62.0,29.46,East,94,0.0,0.0,90,0.06,,,0.65,weatherlink.com 1.10,2013-05-20 02:17:00,
2013-05-19 21:47:00,64.4,62.0,29.46,SSE,148,0.0,0.0,91,0.03,,,0.65,weatherlink.com 1.10,2013-05-20 02:47:00,
2013-05-19 22:02:00,64.3,62.0,29.46,East,94,0.0,0.0,91,0.01,,,0.65,weatherlink.com 1.10,2013-05-20 03:02:00,
2013-05-19 22:18:00,64.1,62.0,29.47,ESE,111,0.0,0.0,91,0.00,,,0.65,weatherlink.com 1.10,2013-05-20 03:18:00,
2013-05-19 22:33:00,64.1,62.0,29.48,ESE,109,0.0,0.0,91,0.00,,,0.65,weatherlink.com 1.10,2013-05-20 03:33:00,
2013-05-19 22:48:00,64.3,62.0,29.50,SE,140,0.0,0.0,92,0.00,,,0.65,weatherlink.com 1.10,2013-05-20 03:48:00,
2013-05-19 23:03:00,64.1,62.0,29.50,South,181,0.0,0.0,92,0.02,,,0.67,weatherlink.com 1.10,2013-05-20 04:03:00,
2013-05-19 23:33:00,63.8,62.0,29.55,South,185,0.0,0.0,94,0.06,,,0.71,weatherlink.com 1.10,2013-05-20 04:33:00,
2013-05-19 23:48:00,63.6,62.0,29.55,South,175,0.0,0.0,94,0.08,,,0.73,weatherlink.com 1.10,2013-05-20 04:48:00,